Lacona, Iowa
Current Conditions -  °F | °C
As of 1:35 PM on Friday 31 Oct 2014 (Local Time) from KCNC Reporting Station
Clear Clear  
Wind Chill: 30°   Ceiling: Unl
Heat Index: 39°   Visibility: 10mi
Dew Point: 19°   Wind: 18mph
Humidity: 45%   Direction: 350°N
Pressure: 30.47"   Gusts: 25mph
Location:  41.19°N, 93.38°W
Report Text: KCNC 311835Z AUTO 35016G22KT 10SM CLR 04/M07 A3047 RMK AO2
Loading
Personal Weather Stations






























Interactive Weather Map
Tropical Storm Tracking
New forecast layout! Learn more

10-Day Weather Forecast

Advertisements
Track Severe Weather on mobile